Time;durP1;ratioP1;P1;durP2;ratioP2;P2;SDS_P1;SDS_P2;PMS_P1;PMS_P2;Temp;Humidity;BMP_temperature;BMP_pressure;BME280_temperature;BME280_humidity;BME280_pressure;Samples;Min_cycle;Max_cycle;Signal;HPM_P1;HPM_P2
2022/01/15 00:00:36;;;;;;;36.83;6.00;;;;;;;;;;10197002;29;20409;-69
2022/01/15 00:05:47;;;;;;;25.15;6.95;;;;;;;;;;10209229;29;20060;-70
2022/01/15 00:10:50;;;;;;;24.75;5.82;;;;;;;;;;10194880;29;20044;-70
2022/01/15 00:16:03;;;;;;;30.02;5.88;;;;;;;;;;10194756;29;20055;-70
2022/01/15 00:21:06;;;;;;;25.73;5.88;;;;;;;;;;10207937;29;20347;-70
2022/01/15 00:26:08;;;;;;;27.98;5.75;;;;;;;;;;10193635;29;20064;-69
2022/01/15 00:31:11;;;;;;;31.13;5.88;;;;;;;;;;10194342;29;20104;-69
2022/01/15 00:36:16;;;;;;;34.00;5.82;;;;;;;;;;10194304;29;20056;-69
2022/01/15 00:41:18;;;;;;;29.67;6.25;;;;;;;;;;10194151;29;20475;-69
2022/01/15 00:46:20;;;;;;;31.20;6.68;;;;;;;;;;10194195;29;20044;-69
2022/01/15 00:51:24;;;;;;;30.30;6.55;;;;;;;;;;10193935;29;20056;-69
2022/01/15 00:56:27;;;;;;;32.28;6.72;;;;;;;;;;10170219;29;20060;-70
2022/01/15 01:01:29;;;;;;;30.88;5.78;;;;;;;;;;10155147;29;20044;-69
2022/01/15 01:06:33;;;;;;;34.17;6.20;;;;;;;;;;10162020;29;20170;-69
2022/01/15 01:11:45;;;;;;;29.63;5.82;;;;;;;;;;10154006;29;20045;-69
2022/01/15 01:27:44;;;;;;;27.73;5.38;;;;;;;;;;10173423;29;20056;-70
2022/01/15 01:32:53;;;;;;;27.50;5.05;;;;;;;;;;10162466;29;20060;-70
2022/01/15 01:38:00;;;;;;;21.35;5.05;;;;;;;;;;10200435;29;20063;-70
2022/01/15 01:43:08;;;;;;;34.08;5.40;;;;;;;;;;10191258;29;20045;-70
2022/01/15 01:48:10;;;;;;;39.22;5.78;;;;;;;;;;10166009;29;20067;-70
2022/01/15 01:53:14;;;;;;;28.10;6.15;;;;;;;;;;10170504;29;20068;-70
2022/01/15 01:58:16;;;;;;;22.75;4.65;;;;;;;;;;10178092;29;20060;-70
2022/01/15 02:03:18;;;;;;;26.98;5.40;;;;;;;;;;10191005;29;20044;-70
2022/01/15 02:08:22;;;;;;;33.83;5.43;;;;;;;;;;10195824;29;20099;-70
2022/01/15 02:13:24;;;;;;;27.27;5.55;;;;;;;;;;10190947;29;20172;-69
2022/01/15 02:18:28;;;;;;;27.95;5.10;;;;;;;;;;10190989;29;20335;-70
2022/01/15 02:23:35;;;;;;;35.55;6.05;;;;;;;;;;10195081;29;20115;-69
2022/01/15 02:28:40;;;;;;;30.95;5.65;;;;;;;;;;10216820;29;20054;-70
2022/01/15 02:33:45;;;;;;;22.67;5.07;;;;;;;;;;10203190;29;20251;-70
2022/01/15 02:38:49;;;;;;;30.77;5.40;;;;;;;;;;10204340;29;20068;-70
2022/01/15 02:43:52;;;;;;;27.07;5.40;;;;;;;;;;10184772;29;20162;-70
2022/01/15 02:48:56;;;;;;;31.75;5.72;;;;;;;;;;10203503;29;20298;-70
2022/01/15 02:54:01;;;;;;;30.63;5.37;;;;;;;;;;10203320;29;20071;-70
2022/01/15 02:59:04;;;;;;;33.58;5.53;;;;;;;;;;10203019;29;20056;-70
2022/01/15 03:04:07;;;;;;;33.15;6.05;;;;;;;;;;10203098;29;20056;-70
2022/01/15 03:09:10;;;;;;;35.25;6.00;;;;;;;;;;10190233;29;20295;-70
2022/01/15 03:14:18;;;;;;;29.17;5.13;;;;;;;;;;10202690;29;20063;-70
2022/01/15 03:19:20;;;;;;;37.00;5.85;;;;;;;;;;10216848;29;20099;-70
2022/01/15 03:24:23;;;;;;;35.13;5.53;;;;;;;;;;10201708;29;20063;-70
2022/01/15 03:29:26;;;;;;;24.85;5.30;;;;;;;;;;10166433;29;20051;-70
2022/01/15 03:34:28;;;;;;;37.55;5.88;;;;;;;;;;10189242;29;20080;-70
2022/01/15 03:39:32;;;;;;;43.17;6.10;;;;;;;;;;10196375;29;20055;-70
2022/01/15 03:44:35;;;;;;;40.97;6.50;;;;;;;;;;10168917;29;20278;-70
2022/01/15 03:49:38;;;;;;;33.55;5.60;;;;;;;;;;10189320;29;20354;-70
2022/01/15 03:54:41;;;;;;;33.58;5.35;;;;;;;;;;10174039;29;20056;-70
2022/01/15 03:59:44;;;;;;;39.22;6.22;;;;;;;;;;10177357;29;20063;-70
2022/01/15 04:04:46;;;;;;;36.15;6.88;;;;;;;;;;10196114;29;20390;-69
2022/01/15 04:09:49;;;;;;;45.42;6.03;;;;;;;;;;10195026;29;20108;-69
2022/01/15 04:14:52;;;;;;;33.15;5.55;;;;;;;;;;10195020;29;20251;-69
2022/01/15 04:19:54;;;;;;;40.05;5.55;;;;;;;;;;10194635;29;20048;-70
2022/01/15 04:24:58;;;;;;;31.08;6.88;;;;;;;;;;10194602;29;20052;-69
2022/01/15 04:30:03;;;;;;;32.10;6.57;;;;;;;;;;10194326;29;20052;-69
2022/01/15 04:35:06;;;;;;;42.25;6.15;;;;;;;;;;10193470;29;20302;-69
2022/01/15 04:40:12;;;;;;;26.02;6.03;;;;;;;;;;10193860;29;20071;-69
2022/01/15 04:45:15;;;;;;;36.28;5.47;;;;;;;;;;10205446;29;20051;-69
2022/01/15 04:50:18;;;;;;;36.35;6.32;;;;;;;;;;10194128;29;20079;-69
2022/01/15 04:55:22;;;;;;;41.08;7.50;;;;;;;;;;10194312;29;20239;-69
2022/01/15 05:00:24;;;;;;;35.50;6.85;;;;;;;;;;10193938;29;20051;-69
2022/01/15 05:05:27;;;;;;;31.48;6.50;;;;;;;;;;10193063;29;20075;-69
2022/01/15 05:10:30;;;;;;;35.30;6.35;;;;;;;;;;10192166;29;20103;-70
2022/01/15 05:15:32;;;;;;;35.67;6.35;;;;;;;;;;10191899;29;20078;-70
2022/01/15 05:20:36;;;;;;;32.75;6.82;;;;;;;;;;10190337;29;20072;-69
2022/01/15 05:25:40;;;;;;;35.70;6.00;;;;;;;;;;10191302;29;20067;-69
2022/01/15 05:30:42;;;;;;;37.50;6.88;;;;;;;;;;10191689;29;20476;-69
2022/01/15 05:35:45;;;;;;;33.95;6.43;;;;;;;;;;10191309;29;20131;-70
2022/01/15 05:40:49;;;;;;;29.25;5.85;;;;;;;;;;10193576;29;20052;-69
2022/01/15 05:45:51;;;;;;;43.95;6.95;;;;;;;;;;10190802;29;20051;-71
2022/01/15 05:50:54;;;;;;;38.72;7.32;;;;;;;;;;10189420;29;20240;-70
2022/01/15 05:55:57;;;;;;;39.63;8.15;;;;;;;;;;10190860;29;20072;-69
2022/01/15 06:01:00;;;;;;;32.83;7.72;;;;;;;;;;10189899;29;20048;-69
2022/01/15 06:06:02;;;;;;;40.38;7.90;;;;;;;;;;10185365;29;20079;-67
2022/01/15 06:11:06;;;;;;;42.85;8.30;;;;;;;;;;10159314;29;20051;-69
2022/01/15 06:16:08;;;;;;;39.13;7.95;;;;;;;;;;10155311;29;20107;-68
2022/01/15 06:21:11;;;;;;;49.00;8.10;;;;;;;;;;10166012;29;20051;-67
2022/01/15 06:26:14;;;;;;;45.17;8.85;;;;;;;;;;10190686;29;20075;-67
2022/01/15 06:31:16;;;;;;;53.30;8.55;;;;;;;;;;10189316;29;20040;-68
2022/01/15 06:36:19;;;;;;;50.55;9.07;;;;;;;;;;10190223;29;20076;-69
2022/01/15 06:41:22;;;;;;;40.33;7.80;;;;;;;;;;10190058;29;20078;-67
2022/01/15 06:46:25;;;;;;;34.70;8.75;;;;;;;;;;10191301;29;20235;-68
2022/01/15 06:51:27;;;;;;;32.08;7.05;;;;;;;;;;10189020;29;20100;-68
2022/01/15 06:56:30;;;;;;;40.95;8.38;;;;;;;;;;10189112;29;20083;-66
2022/01/15 07:01:33;;;;;;;40.47;7.85;;;;;;;;;;10190381;29;20186;-68
2022/01/15 07:06:35;;;;;;;43.17;8.35;;;;;;;;;;10191653;29;20284;-68
2022/01/15 07:11:39;;;;;;;32.47;7.15;;;;;;;;;;10192659;29;20056;-69
2022/01/15 07:16:41;;;;;;;36.85;8.23;;;;;;;;;;10197936;29;20387;-68
2022/01/15 07:21:43;;;;;;;47.10;15.23;;;;;;;;;;10189443;29;20116;-68
2022/01/15 07:26:49;;;;;;;34.53;8.18;;;;;;;;;;10197521;29;20067;-69
2022/01/15 07:31:52;;;;;;;;;;;;;;;;;;10204150;29;20072;-67
2022/01/15 07:36:57;;;;;;;20.23;6.30;;;;;;;;;;10196832;29;19944;-68
2022/01/15 07:42:01;;;;;;;28.10;7.25;;;;;;;;;;10197292;29;20048;-68
2022/01/15 07:47:04;;;;;;;30.75;9.85;;;;;;;;;;10194920;29;20116;-68
2022/01/15 07:52:07;;;;;;;29.08;8.75;;;;;;;;;;10181830;29;20080;-68
2022/01/15 07:57:10;;;;;;;28.83;8.38;;;;;;;;;;10157188;29;20052;-70
2022/01/15 08:02:12;;;;;;;31.88;8.85;;;;;;;;;;10178479;29;20047;-68
2022/01/15 08:07:16;;;;;;;33.20;9.13;;;;;;;;;;10196231;29;20086;-67
2022/01/15 08:12:21;;;;;;;35.47;9.20;;;;;;;;;;10194727;29;20079;-67
2022/01/15 08:17:24;;;;;;;36.20;9.40;;;;;;;;;;10194861;29;20088;-67
2022/01/15 08:22:29;;;;;;;27.23;9.00;;;;;;;;;;10192337;29;20102;-68
2022/01/15 08:27:33;;;;;;;33.75;10.23;;;;;;;;;;10194484;29;20071;-67
2022/01/15 08:32:35;;;;;;;24.27;8.27;;;;;;;;;;10194882;29;20060;-67
2022/01/15 08:37:38;;;;;;;25.33;7.80;;;;;;;;;;10195292;29;20268;-66
2022/01/15 08:42:42;;;;;;;20.50;7.68;;;;;;;;;;10195243;29;20303;-67
2022/01/15 08:47:44;;;;;;;30.58;7.97;;;;;;;;;;10195391;29;20123;-67
2022/01/15 08:52:47;;;;;;;23.70;7.88;;;;;;;;;;10194657;29;20084;-67
2022/01/15 08:57:50;;;;;;;26.63;9.48;;;;;;;;;;10194865;29;20071;-67
2022/01/15 09:02:53;;;;;;;24.38;8.50;;;;;;;;;;10193784;29;20064;-68
2022/01/15 09:07:56;;;;;;;20.60;8.00;;;;;;;;;;10194288;29;20232;-68
2022/01/15 09:13:00;;;;;;;32.30;10.30;;;;;;;;;;10194049;29;20060;-68
2022/01/15 09:18:02;;;;;;;23.63;9.27;;;;;;;;;;10193046;29;20245;-67
2022/01/15 09:23:04;;;;;;;29.73;12.00;;;;;;;;;;10154175;29;20387;-68
2022/01/15 09:33:28;;;;;;;34.20;11.07;;;;;;;;;;10192053;29;20071;-68
2022/01/15 09:38:31;;;;;;;29.10;10.98;;;;;;;;;;10192389;29;20096;-68
2022/01/15 09:43:36;;;;;;;25.08;10.55;;;;;;;;;;10192275;29;20052;-68
2022/01/15 09:48:40;;;;;;;30.05;12.15;;;;;;;;;;10192073;29;20292;-68
2022/01/15 09:53:43;;;;;;;33.17;14.83;;;;;;;;;;10191794;29;20072;-67
2022/01/15 09:58:46;;;;;;;31.65;11.82;;;;;;;;;;10191549;29;20343;-69
2022/01/15 10:03:49;;;;;;;28.42;11.07;;;;;;;;;;10173330;29;20044;-71
2022/01/15 10:09:00;;;;;;;30.50;11.10;;;;;;;;;;10191008;29;20174;-69
2022/01/15 10:14:04;;;;;;;31.10;11.20;;;;;;;;;;10204611;29;20044;-70
2022/01/15 10:19:06;;;;;;;35.55;12.98;;;;;;;;;;10190473;29;20143;-68
2022/01/15 10:24:08;;;;;;;38.67;14.00;;;;;;;;;;10189603;29;20040;-68
2022/01/15 10:29:14;;;;;;;38.30;13.48;;;;;;;;;;10184400;29;20083;-68
2022/01/15 10:34:27;;;;;;;37.10;16.90;;;;;;;;;;10177473;29;20103;-67
2022/01/15 10:39:29;;;;;;;32.00;13.88;;;;;;;;;;10160439;29;20359;-68
2022/01/15 10:44:35;;;;;;;41.92;16.25;;;;;;;;;;10193673;29;20092;-67
2022/01/15 10:49:40;;;;;;;27.45;13.32;;;;;;;;;;10212605;29;20335;-68
2022/01/15 10:54:58;;;;;;;39.53;14.13;;;;;;;;;;10199562;29;20059;-66
2022/01/15 11:00:14;;;;;;;27.73;11.73;;;;;;;;;;10198802;29;20107;-68
2022/01/15 11:05:22;;;;;;;38.50;13.52;;;;;;;;;;10205911;29;20098;-67
2022/01/15 11:10:25;;;;;;;37.47;16.90;;;;;;;;;;10198443;29;20351;-66
2022/01/15 11:15:28;;;;;;;34.65;13.38;;;;;;;;;;10198985;29;20110;-67
2022/01/15 11:20:33;;;;;;;37.80;13.75;;;;;;;;;;10163529;29;20056;-68
2022/01/15 11:25:35;;;;;;;40.30;15.53;;;;;;;;;;10187624;29;20250;-67
2022/01/15 11:30:40;;;;;;;32.38;13.38;;;;;;;;;;10198404;29;20354;-67
2022/01/15 11:35:45;;;;;;;33.27;13.70;;;;;;;;;;10197517;29;20096;-66
2022/01/15 11:40:53;;;;;;;35.72;15.25;;;;;;;;;;10210588;29;20083;-67
2022/01/15 11:45:58;;;;;;;42.90;15.93;;;;;;;;;;10210285;29;20067;-66
2022/01/15 11:51:25;;;;;;;46.22;17.98;;;;;;;;;;10194148;29;20055;-67
2022/01/15 11:56:37;;;;;;;43.25;17.83;;;;;;;;;;10195670;29;20055;-67
2022/01/15 12:01:43;;;;;;;38.15;15.50;;;;;;;;;;10210119;29;20079;-67
2022/01/15 12:07:23;;;;;;;43.28;19.65;;;;;;;;;;10208736;29;20129;-67
2022/01/15 12:12:48;;;;;;;32.88;14.55;;;;;;;;;;10196520;29;20077;-67
2022/01/15 12:17:54;;;;;;;;;;;;;;;;;;10197160;29;20075;-67
2022/01/15 12:22:58;;;;;;;41.90;18.83;;;;;;;;;;10209385;29;20099;-67
2022/01/15 12:28:03;;;;;;;56.15;20.27;;;;;;;;;;10196022;29;20048;-66
2022/01/15 12:33:12;;;;;;;43.28;17.88;;;;;;;;;;10195941;29;20112;-66
2022/01/15 12:38:21;;;;;;;50.03;18.58;;;;;;;;;;10208568;29;20059;-66
2022/01/15 12:43:26;;;;;;;79.85;31.80;;;;;;;;;;10195725;29;20048;-66
2022/01/15 12:48:31;;;;;;;49.28;19.05;;;;;;;;;;10195509;29;20217;-65
2022/01/15 12:53:35;;;;;;;;;;;;;;;;;;10208704;29;20052;-65
2022/01/15 12:58:39;;;;;;;38.72;15.15;;;;;;;;;;10194499;29;19946;-65
2022/01/15 13:03:43;;;;;;;44.05;17.42;;;;;;;;;;10194455;29;20052;-66
2022/01/15 13:08:45;;;;;;;34.65;15.30;;;;;;;;;;10192892;29;20107;-65
2022/01/15 13:13:49;;;;;;;34.13;14.55;;;;;;;;;;10194616;29;20128;-65
2022/01/15 13:18:58;;;;;;;49.95;17.75;;;;;;;;;;10194611;29;20080;-66
2022/01/15 13:24:07;;;;;;;66.57;22.98;;;;;;;;;;10193895;29;20280;-65
2022/01/15 13:29:11;;;;;;;68.03;23.20;;;;;;;;;;10193559;29;20075;-66
2022/01/15 13:34:18;;;;;;;74.95;26.45;;;;;;;;;;10192774;29;20068;-66
2022/01/15 13:39:22;;;;;;;77.80;24.20;;;;;;;;;;10193833;29;20064;-67
2022/01/15 13:44:24;;;;;;;64.30;23.60;;;;;;;;;;10193101;29;20040;-68
2022/01/15 13:53:04;;;;;;;97.47;33.28;;;;;;;;;;10192956;29;20069;-69
2022/01/15 13:55:01;;;;;;;80.93;30.02;;;;;;;;;;10194593;29;20080;-68
2022/01/15 14:00:07;;;;;;;75.45;32.08;;;;;;;;;;10193122;29;20315;-67
2022/01/15 14:05:12;;;;;;;91.55;33.97;;;;;;;;;;10206024;29;20047;-69
2022/01/15 14:10:15;;;;;;;;;;;;;;;;;;10206091;29;20075;-65
2022/01/15 14:15:18;;;;;;;68.38;27.38;;;;;;;;;;10192528;29;19935;-65
2022/01/15 14:20:51;;;;;;;70.47;28.77;;;;;;;;;;10172803;29;20056;-66
2022/01/15 14:25:53;;;;;;;75.05;30.35;;;;;;;;;;10192289;29;20067;-66
2022/01/15 14:30:56;;;;;;;88.88;34.97;;;;;;;;;;10191323;29;20343;-67
2022/01/15 14:36:00;;;;;;;77.75;31.70;;;;;;;;;;10191203;29;20095;-65
2022/01/15 14:41:03;;;;;;;79.53;32.95;;;;;;;;;;10192157;29;20044;-66
2022/01/15 14:46:06;;;;;;;74.05;33.10;;;;;;;;;;10191703;29;20056;-66
2022/01/15 14:51:13;;;;;;;75.75;31.25;;;;;;;;;;10191852;29;20299;-67
2022/01/15 14:56:15;;;;;;;73.93;29.67;;;;;;;;;;10204313;29;20122;-65
2022/01/15 15:01:18;;;;;;;81.63;30.13;;;;;;;;;;10191174;29;20216;-67
2022/01/15 15:06:21;;;;;;;82.07;28.83;;;;;;;;;;10186854;29;20083;-65
2022/01/15 15:11:25;;;;;;;77.57;28.42;;;;;;;;;;10191144;29;20052;-64
2022/01/15 15:16:28;;;;;;;77.35;28.75;;;;;;;;;;10191150;29;20060;-64
2022/01/15 15:21:33;;;;;;;95.00;37.80;;;;;;;;;;10190563;29;20103;-65
2022/01/15 15:26:35;;;;;;;127.00;45.90;;;;;;;;;;10190623;29;20076;-67
2022/01/15 15:31:38;;;;;;;107.20;41.75;;;;;;;;;;10193074;29;20103;-65
2022/01/15 15:36:42;;;;;;;115.05;46.53;;;;;;;;;;10169194;29;20080;-67
2022/01/15 15:41:45;;;;;;;115.43;48.67;;;;;;;;;;10182609;29;20048;-66
2022/01/15 15:46:48;;;;;;;95.28;36.47;;;;;;;;;;10197206;29;20533;-66
2022/01/15 15:51:52;;;;;;;100.30;37.17;;;;;;;;;;10196834;29;20056;-68
2022/01/15 15:56:55;;;;;;;89.70;33.92;;;;;;;;;;10196851;29;20084;-65
2022/01/15 16:01:57;;;;;;;97.88;34.63;;;;;;;;;;10197137;29;20059;-67
2022/01/15 16:07:00;;;;;;;106.68;36.17;;;;;;;;;;10197064;29;20052;-72
2022/01/15 16:12:03;;;;;;;101.65;35.97;;;;;;;;;;10193861;29;20080;-66
2022/01/15 16:17:06;;;;;;;88.13;35.35;;;;;;;;;;10190812;29;20260;-68
2022/01/15 16:22:10;;;;;;;98.32;35.83;;;;;;;;;;10179768;29;20332;-67
2022/01/15 16:27:12;;;;;;;111.53;40.65;;;;;;;;;;10190682;29;20071;-67
2022/01/15 16:32:17;;;;;;;114.28;43.55;;;;;;;;;;10193765;29;20103;-67
2022/01/15 16:37:21;;;;;;;106.28;35.55;;;;;;;;;;10193972;29;20071;-69
2022/01/15 16:42:23;;;;;;;99.40;33.42;;;;;;;;;;10190725;29;20048;-68
2022/01/15 16:47:26;;;;;;;110.60;36.58;;;;;;;;;;10184876;29;20091;-66
2022/01/15 16:52:29;;;;;;;98.22;34.45;;;;;;;;;;10179673;29;20224;-67
2022/01/15 16:57:32;;;;;;;108.57;36.13;;;;;;;;;;10165595;29;20076;-67
2022/01/15 17:02:34;;;;;;;102.28;35.80;;;;;;;;;;10175533;29;20243;-68
2022/01/15 17:07:39;;;;;;;114.70;37.90;;;;;;;;;;10191969;29;20044;-67
2022/01/15 17:12:42;;;;;;;137.55;44.70;;;;;;;;;;10185099;29;20069;-67
2022/01/15 17:17:44;;;;;;;149.55;45.97;;;;;;;;;;10182408;29;20092;-66
2022/01/15 17:22:48;;;;;;;138.68;41.95;;;;;;;;;;10190826;29;20058;-68
2022/01/15 17:27:50;;;;;;;127.07;41.15;;;;;;;;;;10192339;29;20075;-68
2022/01/15 17:32:53;;;;;;;133.95;46.28;;;;;;;;;;10188370;29;20080;-67
2022/01/15 17:37:57;;;;;;;137.52;45.65;;;;;;;;;;10191964;29;20087;-67
2022/01/15 17:42:59;;;;;;;94.72;37.22;;;;;;;;;;10187992;29;20323;-67
2022/01/15 17:48:02;;;;;;;98.95;36.08;;;;;;;;;;10185233;29;20052;-68
2022/01/15 17:53:05;;;;;;;89.72;34.30;;;;;;;;;;10188387;29;20247;-67
2022/01/15 17:58:08;;;;;;;81.70;32.92;;;;;;;;;;10190234;29;20072;-67
2022/01/15 18:03:10;;;;;;;66.55;27.95;;;;;;;;;;10189247;29;20351;-66
2022/01/15 18:08:14;;;;;;;73.18;29.52;;;;;;;;;;10186708;29;20087;-67
2022/01/15 18:13:16;;;;;;;71.78;28.75;;;;;;;;;;10184519;29;20111;-68
2022/01/15 18:18:19;;;;;;;69.38;30.27;;;;;;;;;;10178137;29;20100;-67
2022/01/15 18:23:25;;;;;;;65.72;28.70;;;;;;;;;;10167326;29;20049;-67
2022/01/15 18:28:27;;;;;;;64.78;28.38;;;;;;;;;;10171331;29;20068;-68
2022/01/15 18:33:30;;;;;;;69.88;29.63;;;;;;;;;;10189314;29;20280;-67
2022/01/15 18:38:34;;;;;;;68.88;28.35;;;;;;;;;;10190363;29;20342;-67
2022/01/15 18:43:36;;;;;;;79.57;32.05;;;;;;;;;;10188653;29;20327;-67
2022/01/15 18:48:39;;;;;;;60.08;25.73;;;;;;;;;;10189318;29;20288;-67
2022/01/15 18:53:42;;;;;;;67.60;26.98;;;;;;;;;;10178725;29;20068;-66
2022/01/15 18:58:44;;;;;;;68.15;27.75;;;;;;;;;;10187287;29;20040;-68
2022/01/15 19:03:47;;;;;;;65.80;26.23;;;;;;;;;;10159347;29;20068;-67
2022/01/15 19:08:51;;;;;;;56.88;25.45;;;;;;;;;;10185002;29;20282;-67
2022/01/15 19:13:53;;;;;;;66.50;29.33;;;;;;;;;;10196901;29;20500;-67
2022/01/15 19:18:56;;;;;;;61.33;25.40;;;;;;;;;;10198075;29;20044;-67
2022/01/15 19:23:59;;;;;;;65.60;26.13;;;;;;;;;;10192726;29;20269;-68
2022/01/15 19:29:01;;;;;;;54.30;24.58;;;;;;;;;;10193181;29;20064;-68
2022/01/15 19:34:04;;;;;;;67.72;29.48;;;;;;;;;;10161081;29;20056;-66
2022/01/15 19:39:08;;;;;;;66.63;28.45;;;;;;;;;;10185650;29;20115;-68
2022/01/15 19:44:10;;;;;;;55.17;25.02;;;;;;;;;;10196918;29;20052;-67
2022/01/15 19:49:13;;;;;;;61.33;26.58;;;;;;;;;;10198523;29;20080;-67
2022/01/15 19:54:17;;;;;;;72.25;29.88;;;;;;;;;;10193003;29;20044;-67
2022/01/15 19:59:19;;;;;;;67.75;29.55;;;;;;;;;;10169704;29;20080;-68
2022/01/15 20:04:22;;;;;;;54.45;24.88;;;;;;;;;;10178397;29;20335;-68
2022/01/15 20:09:25;;;;;;;52.58;23.38;;;;;;;;;;10190959;29;20141;-67
2022/01/15 20:14:28;;;;;;;54.10;24.30;;;;;;;;;;10185918;29;20047;-68
2022/01/15 20:19:30;;;;;;;60.47;25.15;;;;;;;;;;10172520;29;20052;-68
2022/01/15 20:24:34;;;;;;;56.05;25.92;;;;;;;;;;10166347;29;20223;-69
2022/01/15 20:29:36;;;;;;;63.58;23.98;;;;;;;;;;10195473;29;20052;-67
2022/01/15 20:34:39;;;;;;;56.15;22.80;;;;;;;;;;10195409;29;20060;-67
2022/01/15 20:39:43;;;;;;;52.00;21.90;;;;;;;;;;10189808;29;20107;-68
2022/01/15 20:44:46;;;;;;;47.80;22.88;;;;;;;;;;10194787;29;20040;-67
2022/01/15 20:49:51;;;;;;;58.85;23.35;;;;;;;;;;10194509;29;20094;-68
2022/01/15 20:54:54;;;;;;;61.60;26.40;;;;;;;;;;10182668;29;20059;-68
2022/01/15 20:59:57;;;;;;;57.80;24.80;;;;;;;;;;10178799;29;20040;-68
2022/01/15 21:04:59;;;;;;;66.80;24.25;;;;;;;;;;10194812;29;20272;-67
2022/01/15 21:10:04;;;;;;;59.45;22.52;;;;;;;;;;10172479;29;20044;-67
2022/01/15 21:15:09;;;;;;;60.80;22.67;;;;;;;;;;10206225;29;20036;-69
2022/01/15 21:20:12;;;;;;;48.00;22.35;;;;;;;;;;10194971;29;20044;-66
2022/01/15 21:25:16;;;;;;;47.90;21.67;;;;;;;;;;10193667;29;20084;-67
2022/01/15 21:30:18;;;;;;;55.00;22.58;;;;;;;;;;10193235;29;20112;-67
2022/01/15 21:35:22;;;;;;;52.05;22.02;;;;;;;;;;10193044;29;20068;-67
2022/01/15 21:40:26;;;;;;;52.95;22.02;;;;;;;;;;10193917;29;20063;-67
2022/01/15 21:45:29;;;;;;;53.17;22.98;;;;;;;;;;10194119;29;20052;-67
2022/01/15 21:50:31;;;;;;;54.15;22.73;;;;;;;;;;10193447;29;20056;-67
2022/01/15 21:55:35;;;;;;;58.83;24.88;;;;;;;;;;10192974;29;20259;-67
2022/01/15 22:00:37;;;;;;;67.70;28.75;;;;;;;;;;10191432;29;20251;-67
2022/01/15 22:05:39;;;;;;;68.93;29.60;;;;;;;;;;10192285;29;20040;-67
2022/01/15 22:10:43;;;;;;;69.93;29.38;;;;;;;;;;10164404;29;20077;-67
2022/01/15 22:15:46;;;;;;;69.82;29.45;;;;;;;;;;10185034;29;20064;-67
2022/01/15 22:20:48;;;;;;;85.97;34.15;;;;;;;;;;10184987;29;20061;-66
2022/01/15 22:25:52;;;;;;;82.25;36.65;;;;;;;;;;10177687;29;20052;-68
2022/01/15 22:30:55;;;;;;;87.93;34.65;;;;;;;;;;10191677;29;20261;-68
2022/01/15 22:35:58;;;;;;;85.38;34.55;;;;;;;;;;10191972;29;20067;-67
2022/01/15 22:41:01;;;;;;;89.72;34.60;;;;;;;;;;10180650;29;20245;-67
2022/01/15 22:46:04;;;;;;;85.03;33.20;;;;;;;;;;10161270;29;20052;-68
2022/01/15 22:51:07;;;;;;;69.28;28.27;;;;;;;;;;10184978;29;20358;-68
2022/01/15 22:56:10;;;;;;;69.57;28.50;;;;;;;;;;10199075;29;20051;-68
2022/01/15 23:01:13;;;;;;;69.85;28.45;;;;;;;;;;10191251;29;20048;-68
2022/01/15 23:06:17;;;;;;;68.03;26.20;;;;;;;;;;10198726;29;20051;-66
2022/01/15 23:11:24;;;;;;;65.07;26.65;;;;;;;;;;10198175;29;20070;-66
2022/01/15 23:16:54;;;;;;;79.70;31.30;;;;;;;;;;10199893;29;20282;-67
2022/01/15 23:21:57;;;;;;;78.75;29.52;;;;;;;;;;10191918;29;20059;-68
2022/01/15 23:27:00;;;;;;;65.65;29.08;;;;;;;;;;10198517;29;20100;-67
2022/01/15 23:32:03;;;;;;;77.47;31.63;;;;;;;;;;10197917;29;20056;-67
2022/01/15 23:37:05;;;;;;;71.88;29.38;;;;;;;;;;10210730;29;20052;-67
2022/01/15 23:42:10;;;;;;;80.57;31.70;;;;;;;;;;10198159;29;20090;-67
2022/01/15 23:47:12;;;;;;;80.93;30.88;;;;;;;;;;10197491;29;20084;-67
2022/01/15 23:52:14;;;;;;;75.88;30.42;;;;;;;;;;10196425;29;20086;-67
2022/01/15 23:57:18;;;;;;;65.35;26.02;;;;;;;;;;10164811;29;20044;-67
